Terminal Aerodrome Forecast
Issued by NWS

Home | Current Version | Previous Version | Text Only | Print | Product List | Glossary On
Versions: 1 2 3 4 5 6 7 8 9 10 11 12 13 14 15 16
000
FTUS43 KDVN 212300
TAFBRL
TAF
KBRL 212330Z 2200/2224 VRB03KT P6SM VCSH BKN080
     FM220100 33011KT P6SM SCT040 BKN100
     FM220400 35010KT P6SM SKC
     FM221500 34010KT P6SM SKC
     FM222200 36005KT P6SM SCT250=

USA.gov is the U.S. government's official web portal to all federal, state and local government web resources and services.